Time;durP1;ratioP1;P1;durP2;ratioP2;P2;SDS_P1;SDS_P2;PMS_P1;PMS_P2;Temp;Humidity;BMP_temperature;BMP_pressure;BME280_temperature;BME280_humidity;BME280_pressure;Samples;Min_cycle;Max_cycle;Signal;HPM_P1;HPM_P2
2021/01/31 00:00:41;;;;;;;9.00;4.82;;;13.50;75.90;;;;;;5024352;28;20026;-68
2021/01/31 00:03:10;;;;;;;7.72;4.43;;;13.50;75.40;;;;;;5014058;28;20360;-67
2021/01/31 00:05:36;;;;;;;9.63;5.20;;;13.50;75.40;;;;;;5025111;28;20057;-68
2021/01/31 00:08:03;;;;;;;8.30;4.63;;;13.50;75.20;;;;;;5020769;28;20033;-68
2021/01/31 00:10:32;;;;;;;7.30;4.20;;;13.50;75.30;;;;;;5017980;28;20418;-67
2021/01/31 00:12:59;;;;;;;8.77;3.92;;;13.50;75.30;;;;;;5027733;28;20033;-68
2021/01/31 00:15:32;;;;;;;8.60;4.07;;;13.50;75.30;;;;;;5011682;28;20022;-68
2021/01/31 00:17:58;;;;;;;9.65;4.68;;;13.50;75.30;;;;;;5019914;28;20394;-66
2021/01/31 00:20:29;;;;;;;7.47;4.55;;;13.40;75.10;;;;;;5018256;28;20022;-67
2021/01/31 00:22:54;;;;;;;9.40;4.83;;;13.40;75.10;;;;;;5026162;28;20064;-68
2021/01/31 00:25:20;;;;;;;7.30;4.70;;;13.40;75.10;;;;;;5013621;28;20053;-68
2021/01/31 00:27:46;;;;;;;6.47;3.88;;;13.40;75.10;;;;;;5024477;28;20052;-68
2021/01/31 00:30:23;;;;;;;8.35;4.32;;;13.40;75.10;;;;;;5020439;28;20689;-68
2021/01/31 00:32:49;;;;;;;8.57;4.68;;;13.40;75.10;;;;;;5014225;28;20060;-68
2021/01/31 00:35:17;;;;;;;7.63;4.57;;;13.40;75.10;;;;;;5027673;28;20064;-67
2021/01/31 00:37:43;;;;;;;10.00;4.18;;;13.40;75.10;;;;;;5009348;28;20689;-67
2021/01/31 00:40:09;;;;;;;7.63;4.30;;;13.40;75.10;;;;;;5011078;28;20029;-67
2021/01/31 00:42:35;;;;;;;8.10;4.38;;;13.40;75.00;;;;;;5010501;28;20092;-67
2021/01/31 00:45:02;;;;;;;7.70;4.85;;;13.30;74.90;;;;;;5010655;28;20030;-68
2021/01/31 00:47:28;;;;;;;9.77;5.68;;;13.30;74.80;;;;;;5010683;28;20141;-68
2021/01/31 00:49:53;;;;;;;8.88;5.20;;;13.30;74.60;;;;;;5009734;28;20506;-68
2021/01/31 00:52:22;;;;;;;9.13;5.57;;;13.30;75.00;;;;;;5009897;28;20061;-68
2021/01/31 00:54:48;;;;;;;8.52;5.10;;;13.30;74.30;;;;;;5010686;28;20026;-68
2021/01/31 00:57:14;;;;;;;8.65;4.70;;;13.30;74.00;;;;;;5009371;28;20029;-68
2021/01/31 00:59:40;;;;;;;9.27;5.20;;;13.20;73.40;;;;;;5010790;28;20033;-67
2021/01/31 01:02:08;;;;;;;9.73;5.57;;;13.20;73.10;;;;;;5009810;28;20100;-67
2021/01/31 01:04:33;;;;;;;8.50;5.28;;;13.20;72.80;;;;;;5010746;28;20033;-67
2021/01/31 01:06:59;;;;;;;8.48;5.78;;;13.20;72.70;;;;;;5009440;28;20029;-68
2021/01/31 01:09:24;;;;;;;9.55;5.70;;;13.10;72.20;;;;;;5010751;28;20033;-67
2021/01/31 01:11:50;;;;;;;10.82;5.53;;;13.10;72.20;;;;;;5009449;28;20036;-66
2021/01/31 01:14:15;;;;;;;8.18;4.82;;;13.10;72.20;;;;;;5009465;28;20026;-67
2021/01/31 01:16:40;;;;;;;7.40;5.05;;;13.10;72.20;;;;;;5009746;28;20049;-68
2021/01/31 01:19:06;;;;;;;9.02;5.07;;;13.10;72.30;;;;;;5010375;28;20034;-67
2021/01/31 01:21:32;;;;;;;8.80;5.50;;;13.00;72.00;;;;;;5009801;28;20032;-68
2021/01/31 01:23:59;;;;;;;8.98;4.43;;;13.00;72.10;;;;;;5009044;28;20037;-67
2021/01/31 01:26:29;;;;;;;7.70;4.13;;;13.00;72.20;;;;;;5010752;28;20109;-67
2021/01/31 01:28:55;;;;;;;8.95;5.03;;;13.00;72.50;;;;;;5010390;28;20034;-67
2021/01/31 01:31:20;;;;;;;8.38;5.07;;;13.00;72.60;;;;;;5001148;28;20037;-68
2021/01/31 01:33:46;;;;;;;8.50;5.60;;;13.00;72.50;;;;;;5010389;28;20021;-67
2021/01/31 01:36:12;;;;;;;7.88;5.00;;;13.00;72.30;;;;;;5010494;28;20029;-67
2021/01/31 01:38:37;;;;;;;8.57;4.22;;;13.00;72.40;;;;;;5009203;28;20022;-68
2021/01/31 01:41:03;;;;;;;7.25;4.85;;;13.00;72.70;;;;;;5013211;28;20056;-68
2021/01/31 01:43:31;;;;;;;7.53;4.60;;;13.00;72.60;;;;;;5018096;28;20038;-67
2021/01/31 01:46:18;;;;;;;8.30;4.95;;;13.00;72.90;;;;;;5009419;28;20049;-68
2021/01/31 01:48:50;;;;;;;9.75;3.85;;;13.00;72.90;;;;;;5008392;28;20033;-67
2021/01/31 01:51:36;;;;;;;7.70;4.32;;;13.00;73.10;;;;;;5010244;28;20132;-67
2021/01/31 01:54:03;;;;;;;7.57;3.88;;;13.00;73.30;;;;;;5013584;28;20061;-68
2021/01/31 01:56:43;;;;;;;7.93;4.18;;;13.00;73.40;;;;;;5012510;28;20418;-67
2021/01/31 01:59:10;;;;;;;8.05;4.18;;;13.00;73.40;;;;;;5012629;28;20025;-68
2021/01/31 02:01:40;;;;;;;7.53;4.25;;;12.90;73.50;;;;;;5013438;28;20095;-68
2021/01/31 02:04:06;;;;;;;5.80;3.45;;;12.90;73.50;;;;;;5007712;28;20096;-68
2021/01/31 02:06:31;;;;;;;8.52;4.10;;;12.90;73.50;;;;;;5012230;28;20446;-68
2021/01/31 02:08:59;;;;;;;6.82;4.00;;;12.90;73.50;;;;;;5012093;28;20120;-68
2021/01/31 02:11:26;;;;;;;7.25;4.10;;;12.90;73.90;;;;;;4998569;28;20085;-68
2021/01/31 02:13:57;;;;;;;7.47;3.92;;;12.90;73.60;;;;;;5000249;28;20029;-68
2021/01/31 02:16:51;;;;;;;7.15;3.97;;;12.90;73.60;;;;;;5013518;28;20487;-67
2021/01/31 02:19:54;;;;;;;8.55;4.15;;;12.90;73.60;;;;;;5003678;28;20049;-67
2021/01/31 02:22:57;;;;;;;7.03;4.35;;;12.90;73.50;;;;;;5012881;28;20053;-67
2021/01/31 02:29:33;;;;;;;6.95;4.00;;;12.80;73.40;;;;;;5011200;28;20045;-67
2021/01/31 02:32:36;;;;;;;8.05;4.38;;;12.90;73.40;;;;;;5012650;28;20421;-68
2021/01/31 02:35:07;;;;;;;7.10;3.88;;;12.80;73.30;;;;;;5011721;28;20597;-66
2021/01/31 02:38:08;;;;;;;7.53;4.35;;;12.80;73.40;;;;;;5013152;28;20121;-68
2021/01/31 02:40:43;;;;;;;7.28;4.40;;;12.80;73.40;;;;;;4955346;28;20468;-67
2021/01/31 02:43:19;;;;;;;8.85;4.90;;;12.80;73.20;;;;;;5006496;28;20058;-67
2021/01/31 02:45:58;;;;;;;7.95;4.85;;;12.80;73.00;;;;;;5012114;28;20119;-67
2021/01/31 02:48:32;;;;;;;8.30;4.70;;;12.70;72.90;;;;;;5009912;28;20041;-67
2021/01/31 02:51:06;;;;;;;8.10;5.10;;;12.70;72.90;;;;;;5012908;28;20041;-68
2021/01/31 02:53:50;;;;;;;7.72;4.90;;;12.70;72.40;;;;;;5012783;28;20156;-68
2021/01/31 02:56:36;;;;;;;8.65;5.65;;;12.70;72.30;;;;;;5012538;28;20149;-68
2021/01/31 02:59:11;;;;;;;8.10;5.28;;;12.70;71.60;;;;;;4995462;28;20026;-68
2021/01/31 03:01:50;;;;;;;8.38;5.43;;;12.60;71.40;;;;;;5012575;28;20026;-68
2021/01/31 03:04:24;;;;;;;8.18;4.95;;;12.60;71.20;;;;;;5012435;28;20034;-68
2021/01/31 03:06:55;;;;;;;7.97;4.85;;;12.60;71.20;;;;;;5012353;28;20030;-68
2021/01/31 03:09:49;;;;;;;7.88;4.93;;;12.60;71.20;;;;;;5012322;28;20045;-68
2021/01/31 03:12:28;;;;;;;8.10;5.30;;;12.60;71.30;;;;;;5010350;28;20047;-68
2021/01/31 03:15:04;;;;;;;8.77;4.68;;;12.60;71.60;;;;;;5012581;28;20037;-67
2021/01/31 03:17:32;;;;;;;9.50;4.93;;;12.60;71.60;;;;;;5012333;28;20034;-67
2021/01/31 03:20:10;;;;;;;8.20;5.00;;;12.60;71.70;;;;;;5012613;28;20064;-67
2021/01/31 03:22:45;;;;;;;8.48;5.18;;;12.60;71.50;;;;;;5012161;28;20041;-67
2021/01/31 03:25:17;;;;;;;7.47;4.80;;;12.60;71.40;;;;;;5003264;28;20084;-68
2021/01/31 03:27:43;;;;;;;10.63;5.38;;;12.60;71.30;;;;;;5012395;28;20564;-68
2021/01/31 03:30:13;;;;;;;8.85;4.88;;;12.50;71.10;;;;;;5011295;28;20026;-67
2021/01/31 03:32:54;;;;;;;8.45;5.00;;;12.50;71.40;;;;;;5012208;28;20626;-68
2021/01/31 03:35:24;;;;;;;7.68;4.25;;;12.50;71.70;;;;;;5010455;28;20030;-68
2021/01/31 03:38:04;;;;;;;8.75;4.97;;;12.50;72.30;;;;;;5012732;28;20025;-68
2021/01/31 03:40:30;;;;;;;7.50;4.63;;;12.50;72.40;;;;;;5012730;28;20034;-68
2021/01/31 03:42:56;;;;;;;7.80;4.90;;;12.50;71.90;;;;;;5011746;28;20554;-67
2021/01/31 03:45:31;;;;;;;8.75;5.55;;;12.50;71.80;;;;;;5011465;28;20168;-68
2021/01/31 03:48:07;;;;;;;8.02;5.13;;;12.50;71.60;;;;;;5011972;28;20067;-66
2021/01/31 03:50:33;;;;;;;8.38;5.40;;;12.50;71.10;;;;;;5011028;28;20372;-67
2021/01/31 03:52:59;;;;;;;8.68;4.95;;;12.40;71.10;;;;;;5011557;28;20045;-67
2021/01/31 03:55:26;;;;;;;7.90;5.10;;;12.40;71.20;;;;;;5011618;28;20386;-68
2021/01/31 03:57:59;;;;;;;9.43;4.65;;;12.40;71.30;;;;;;5010184;28;20105;-67
2021/01/31 04:00:34;;;;;;;7.88;4.15;;;12.40;71.30;;;;;;5011444;28;20029;-68
2021/01/31 04:03:13;;;;;;;8.02;4.93;;;12.40;71.40;;;;;;5011689;28;20026;-68
2021/01/31 04:06:02;;;;;;;8.40;5.43;;;12.40;71.30;;;;;;5009962;28;20387;-68
2021/01/31 04:08:31;;;;;;;7.82;4.78;;;12.40;71.00;;;;;;5009688;28;20045;-67
2021/01/31 04:10:56;;;;;;;8.82;5.03;;;12.40;70.80;;;;;;5009287;28;20053;-68
2021/01/31 04:13:22;;;;;;;10.57;5.38;;;12.40;70.90;;;;;;5011625;28;20022;-68
2021/01/31 04:15:54;;;;;;;9.30;5.63;;;12.40;71.10;;;;;;5011129;28;20029;-68
2021/01/31 04:18:21;;;;;;;9.07;5.10;;;12.40;71.20;;;;;;5009774;28;20061;-67
2021/01/31 04:20:48;;;;;;;8.35;5.00;;;12.30;71.20;;;;;;5011471;28;20045;-69
2021/01/31 04:23:14;;;;;;;8.75;5.32;;;12.30;71.20;;;;;;5011005;28;20034;-68
2021/01/31 04:25:40;;;;;;;8.98;4.97;;;12.30;71.30;;;;;;5011006;28;20029;-68
2021/01/31 04:28:09;;;;;;;8.45;4.70;;;12.30;71.30;;;;;;5011071;28;20512;-68
2021/01/31 04:30:39;;;;;;;8.55;4.70;;;12.30;71.40;;;;;;5011160;28;20029;-67
2021/01/31 04:33:05;;;;;;;8.48;4.70;;;12.30;71.40;;;;;;5010587;28;20030;-68
2021/01/31 04:35:31;;;;;;;7.25;4.75;;;12.30;71.40;;;;;;5010307;28;20113;-67
2021/01/31 04:37:57;;;;;;;8.13;5.18;;;12.30;71.30;;;;;;5010041;28;20052;-68
2021/01/31 04:40:24;;;;;;;8.57;4.68;;;12.30;71.30;;;;;;5011177;28;20478;-67
2021/01/31 04:42:49;;;;;;;9.00;5.53;;;12.20;71.20;;;;;;5011034;28;20029;-67
2021/01/31 04:45:16;;;;;;;9.60;5.28;;;12.20;71.00;;;;;;5009680;28;20030;-67
2021/01/31 04:47:53;;;;;;;8.30;4.88;;;12.20;70.90;;;;;;5009678;28;20034;-66
2021/01/31 04:50:38;;;;;;;7.85;5.30;;;12.20;70.80;;;;;;5009898;28;20570;-68
2021/01/31 04:53:41;;;;;;;8.35;4.90;;;12.20;70.50;;;;;;5013496;28;20029;-68
2021/01/31 04:56:30;;;;;;;8.07;4.78;;;12.20;70.40;;;;;;5018052;28;20100;-68
2021/01/31 04:59:06;;;;;;;11.10;5.45;;;12.20;70.00;;;;;;5001404;28;20053;-68
2021/01/31 05:01:32;;;;;;;7.80;5.00;;;12.10;69.20;;;;;;5014911;28;20088;-67
2021/01/31 05:04:04;;;;;;;8.75;5.13;;;12.10;70.00;;;;;;5009961;28;20101;-67
2021/01/31 05:06:47;;;;;;;8.45;5.45;;;12.10;69.50;;;;;;5009332;28;20482;-68
2021/01/31 05:09:19;;;;;;;7.80;4.70;;;12.10;69.60;;;;;;5010128;28;20033;-67
2021/01/31 05:11:59;;;;;;;7.03;4.68;;;12.10;70.00;;;;;;5009324;28;20026;-67
2021/01/31 05:14:46;;;;;;;7.53;4.78;;;12.10;70.20;;;;;;5009181;28;20487;-68
2021/01/31 05:17:15;;;;;;;7.50;4.22;;;12.10;70.60;;;;;;5010768;28;20041;-68
2021/01/31 05:19:40;;;;;;;6.70;4.25;;;12.10;70.80;;;;;;5010419;28;20030;-68
2021/01/31 05:22:06;;;;;;;8.50;4.95;;;12.10;70.90;;;;;;5008428;28;20076;-68
2021/01/31 05:24:32;;;;;;;7.20;4.55;;;12.10;70.90;;;;;;5010097;28;20029;-68
2021/01/31 05:27:01;;;;;;;9.25;4.60;;;12.10;71.00;;;;;;5009935;28;20390;-68
2021/01/31 05:29:33;;;;;;;7.22;4.50;;;12.10;70.90;;;;;;5010286;28;20057;-67
2021/01/31 05:32:12;;;;;;;7.82;4.43;;;12.10;70.80;;;;;;5009676;28;20106;-67
2021/01/31 05:34:52;;;;;;;8.48;4.68;;;12.10;70.70;;;;;;5010755;28;20061;-68
2021/01/31 05:37:21;;;;;;;7.78;5.07;;;12.10;70.50;;;;;;5010103;28;20427;-68
2021/01/31 05:39:55;;;;;;;8.32;4.90;;;12.00;70.20;;;;;;5010073;28;20026;-68
2021/01/31 05:42:41;;;;;;;8.18;5.18;;;12.00;69.90;;;;;;5009745;28;20030;-68
2021/01/31 05:45:19;;;;;;;7.13;4.45;;;12.00;69.50;;;;;;5010304;28;20030;-68
2021/01/31 05:47:44;;;;;;;7.70;4.65;;;12.00;69.70;;;;;;5009214;28;20022;-66
2021/01/31 05:50:30;;;;;;;7.43;4.80;;;12.00;69.80;;;;;;5009825;28;20045;-68
2021/01/31 05:52:56;;;;;;;8.40;4.60;;;12.00;69.90;;;;;;5007727;28;20037;-68
2021/01/31 05:55:29;;;;;;;9.55;4.90;;;12.00;70.00;;;;;;5008929;28;20026;-67
2021/01/31 05:58:16;;;;;;;7.35;4.65;;;12.00;70.00;;;;;;5008517;28;20026;-68
2021/01/31 06:00:42;;;;;;;7.53;4.70;;;12.00;69.90;;;;;;4983647;28;20030;-69
2021/01/31 06:03:09;;;;;;;6.40;4.13;;;12.00;70.00;;;;;;5010301;28;20502;-68
2021/01/31 06:05:36;;;;;;;7.45;4.47;;;11.90;69.80;;;;;;5008432;28;20038;-68
2021/01/31 06:08:03;;;;;;;8.07;4.38;;;12.00;69.90;;;;;;5010085;28;20061;-68
2021/01/31 06:10:31;;;;;;;7.50;4.13;;;12.00;69.70;;;;;;5010015;28;20026;-67
2021/01/31 06:13:09;;;;;;;14.00;4.80;;;11.90;69.60;;;;;;5014046;28;20041;-68
2021/01/31 06:16:00;;;;;;;9.35;4.53;;;11.90;69.50;;;;;;5008939;28;20479;-69
2021/01/31 06:18:41;;;;;;;8.82;4.80;;;11.90;69.30;;;;;;5019642;28;20056;-67
2021/01/31 06:21:13;;;;;;;9.05;5.00;;;11.90;69.60;;;;;;5028916;28;20037;-68
2021/01/31 06:23:40;;;;;;;9.45;5.30;;;11.90;69.70;;;;;;5022218;28;20112;-67
2021/01/31 06:26:06;;;;;;;9.35;4.85;;;11.90;69.70;;;;;;5026663;28;20131;-67
2021/01/31 06:28:45;;;;;;;9.25;4.53;;;11.90;69.70;;;;;;5009841;28;20030;-66
2021/01/31 06:31:45;;;;;;;9.18;4.68;;;11.90;69.60;;;;;;5011736;28;20026;-68
2021/01/31 06:34:11;;;;;;;;;;;11.90;69.60;;;;;;5006212;28;20080;-67
2021/01/31 06:37:13;;;;;;;8.10;4.57;;;11.90;69.50;;;;;;5020633;28;19913;-68
2021/01/31 06:40:03;;;;;;;8.32;4.45;;;11.90;69.50;;;;;;5017185;28;20014;-68
2021/01/31 06:42:38;;;;;;;8.70;4.80;;;11.90;69.70;;;;;;5007815;28;20028;-67
2021/01/31 06:45:20;;;;;;;6.35;4.07;;;11.90;69.60;;;;;;5009694;28;20021;-68
2021/01/31 06:51:16;;;;;;;9.07;4.50;;;11.80;69.90;;;;;;5007906;28;20107;-67
2021/01/31 06:54:00;;;;;;;7.47;5.03;;;11.80;69.90;;;;;;5017668;28;20026;-68
2021/01/31 06:57:03;;;;;;;8.20;4.32;;;11.80;70.00;;;;;;5006492;28;20022;-67
2021/01/31 06:59:48;;;;;;;6.90;4.30;;;11.80;69.90;;;;;;5013336;28;20028;-67
2021/01/31 07:02:52;;;;;;;7.70;4.38;;;11.80;69.80;;;;;;5012822;28;20026;-66
2021/01/31 07:05:36;;;;;;;13.13;10.13;;;11.90;70.20;;;;;;5014816;28;20075;-66
2021/01/31 07:08:22;;;;;;;10.15;6.63;;;11.90;70.70;;;;;;5012627;28;20497;-67
2021/01/31 07:11:06;;;;;;;16.60;6.30;;;11.90;70.60;;;;;;5029916;28;20052;-67
2021/01/31 07:13:59;;;;;;;12.20;6.75;;;11.90;70.60;;;;;;5015469;28;20022;-68
2021/01/31 07:16:39;;;;;;;10.27;6.43;;;11.90;70.80;;;;;;5007842;28;20038;-68
2021/01/31 07:19:16;;;;;;;11.15;4.60;;;11.90;71.10;;;;;;5019075;28;20048;-69
2021/01/31 07:22:02;;;;;;;13.48;7.63;;;12.00;71.80;;;;;;5003164;28;20598;-67
2021/01/31 07:24:57;;;;;;;16.00;7.80;;;12.00;72.10;;;;;;5014340;28;20033;-67
2021/01/31 07:27:46;;;;;;;14.43;6.10;;;12.00;71.70;;;;;;5013280;28;20032;-66
2021/01/31 07:30:23;;;;;;;13.02;6.80;;;12.00;71.60;;;;;;5014274;28;20029;-65
2021/01/31 07:33:18;;;;;;;20.80;7.10;;;12.00;71.80;;;;;;5012544;28;20029;-69
2021/01/31 07:35:55;;;;;;;15.15;6.55;;;12.00;71.80;;;;;;5011465;28;20034;-69
2021/01/31 07:38:30;;;;;;;15.20;5.95;;;12.00;72.10;;;;;;5005682;28;20133;-68
2021/01/31 07:40:57;;;;;;;16.17;5.78;;;12.10;73.00;;;;;;5005442;28;20113;-67
2021/01/31 07:43:26;;;;;;;11.95;5.68;;;12.20;73.40;;;;;;5010514;28;20046;-67
2021/01/31 07:46:04;;;;;;;14.40;6.25;;;12.20;73.70;;;;;;5008281;28;20052;-71
2021/01/31 07:48:45;;;;;;;13.98;5.57;;;12.30;74.10;;;;;;5010492;28;20560;-69
2021/01/31 07:51:19;;;;;;;21.58;8.25;;;12.30;73.90;;;;;;5012288;28;20022;-71
2021/01/31 07:53:45;;;;;;;27.60;9.98;;;12.30;73.80;;;;;;5012020;28;20033;-70
2021/01/31 07:56:31;;;;;;;31.98;9.00;;;12.30;73.90;;;;;;5010314;28;20018;-68
2021/01/31 08:05:52;;;;;;;19.67;7.85;;;12.60;74.00;;;;;;5008618;28;20029;-69
2021/01/31 08:11:39;;;;;;;17.75;10.20;;;12.80;74.00;;;;;;5010281;28;20029;-71
2021/01/31 08:14:08;;;;;;;20.80;10.18;;;12.90;73.90;;;;;;5010756;28;20030;-70
2021/01/31 08:16:48;;;;;;;16.95;9.32;;;13.00;74.00;;;;;;5011534;28;20028;-68
2021/01/31 08:19:17;;;;;;;20.73;8.93;;;13.20;74.10;;;;;;5014086;28;20092;-70
2021/01/31 08:21:49;;;;;;;16.70;8.75;;;13.30;73.90;;;;;;5009771;28;20042;-70
2021/01/31 08:24:53;;;;;;;19.83;9.40;;;13.40;73.70;;;;;;5010384;28;20403;-72
2021/01/31 08:27:40;;;;;;;20.60;9.07;;;13.50;73.20;;;;;;5011369;28;20037;-69
2021/01/31 08:30:21;;;;;;;21.40;9.05;;;13.60;72.80;;;;;;5011574;28;20109;-70
2021/01/31 08:36:11;;;;;;;18.77;8.80;;;13.70;71.50;;;;;;5010288;28;20244;-71
2021/01/31 08:45:21;;;;;;;14.98;7.65;;;14.00;70.70;;;;;;5010377;28;20032;-70
2021/01/31 08:48:34;;;;;;;15.15;7.45;;;14.10;70.30;;;;;;5010065;28;20060;-70
2021/01/31 08:51:17;;;;;;;17.27;7.68;;;14.20;69.90;;;;;;5010216;28;20030;-69
2021/01/31 08:53:43;;;;;;;13.45;6.78;;;14.20;69.60;;;;;;5009757;28;20061;-70
2021/01/31 08:56:22;;;;;;;16.13;7.63;;;14.40;69.40;;;;;;5010018;28;20053;-69
2021/01/31 08:58:48;;;;;;;17.75;8.23;;;14.40;69.10;;;;;;5010847;28;20048;-70
2021/01/31 09:01:14;;;;;;;14.77;7.50;;;14.50;69.00;;;;;;5009700;28;20037;-70
2021/01/31 09:03:44;;;;;;;14.45;7.50;;;14.60;68.80;;;;;;5009540;28;20026;-70
2021/01/31 09:06:10;;;;;;;16.23;8.35;;;14.60;68.50;;;;;;5009805;28;20030;-70
2021/01/31 09:08:38;;;;;;;21.27;8.00;;;14.70;68.10;;;;;;5010978;28;20036;-70
2021/01/31 09:11:09;;;;;;;19.10;8.05;;;14.70;67.50;;;;;;5010901;28;20061;-70
2021/01/31 09:13:35;;;;;;;19.30;8.98;;;14.80;67.30;;;;;;5010639;28;20105;-70
2021/01/31 09:16:22;;;;;;;15.23;8.68;;;14.90;67.00;;;;;;5010917;28;20030;-69
2021/01/31 09:19:02;;;;;;;20.15;9.50;;;14.90;66.90;;;;;;5009368;28;20092;-71
2021/01/31 09:21:32;;;;;;;20.33;9.40;;;15.00;66.80;;;;;;5017065;28;20030;-71
2021/01/31 09:24:05;;;;;;;16.25;8.90;;;15.10;66.50;;;;;;4996083;28;20025;-71
2021/01/31 09:26:32;;;;;;;14.63;7.90;;;15.20;66.40;;;;;;4991845;28;20352;-71
2021/01/31 09:28:59;;;;;;;12.60;8.07;;;15.30;66.40;;;;;;5009981;28;20057;-70
2021/01/31 09:31:29;;;;;;;17.35;8.25;;;15.40;66.30;;;;;;5010445;28;20453;-70
2021/01/31 09:34:02;;;;;;;13.82;7.43;;;15.50;66.30;;;;;;5008748;28;20042;-70
2021/01/31 09:36:30;;;;;;;14.88;7.43;;;15.60;66.10;;;;;;5010623;28;20414;-70
2021/01/31 09:38:58;;;;;;;12.32;7.18;;;15.70;65.80;;;;;;5010107;28;20030;-70
2021/01/31 09:41:26;;;;;;;11.35;6.85;;;15.80;65.70;;;;;;5009792;28;20438;-70
2021/01/31 09:43:54;;;;;;;13.25;6.85;;;15.90;65.60;;;;;;5007804;28;20022;-71
2021/01/31 09:46:24;;;;;;;16.80;10.63;;;16.00;65.60;;;;;;5010355;28;20643;-70
2021/01/31 09:49:00;;;;;;;24.52;11.23;;;16.00;65.10;;;;;;5010309;28;20545;-71
2021/01/31 09:51:26;;;;;;;17.88;10.43;;;16.10;65.10;;;;;;5010262;28;20591;-70
2021/01/31 09:53:52;;;;;;;20.95;11.43;;;16.20;64.90;;;;;;5010150;28;20472;-70
2021/01/31 09:56:38;;;;;;;25.85;9.60;;;16.20;64.90;;;;;;5010366;28;20060;-70
2021/01/31 09:59:18;;;;;;;17.75;9.18;;;16.30;64.80;;;;;;5010362;28;20022;-70
2021/01/31 10:01:43;;;;;;;16.50;8.15;;;16.40;64.50;;;;;;5008646;28;20665;-70
2021/01/31 10:04:18;;;;;;;15.55;8.00;;;16.40;64.30;;;;;;5008658;28;20022;-70
2021/01/31 10:06:47;;;;;;;13.43;8.07;;;16.50;63.80;;;;;;5010047;28;20101;-70
2021/01/31 10:09:13;;;;;;;14.85;7.70;;;16.50;63.60;;;;;;5010573;28;20030;-70
2021/01/31 10:11:42;;;;;;;13.93;7.28;;;16.60;63.30;;;;;;5014172;28;20419;-70
2021/01/31 10:14:33;;;;;;;12.25;7.47;;;16.70;62.80;;;;;;5013546;28;20037;-70
2021/01/31 10:17:12;;;;;;;12.90;7.57;;;16.70;62.70;;;;;;4982248;28;20494;-70
2021/01/31 10:19:37;;;;;;;14.00;6.80;;;16.80;62.40;;;;;;5013949;28;20025;-70
2021/01/31 10:22:12;;;;;;;12.82;6.75;;;16.80;62.20;;;;;;5012124;28;20395;-70
2021/01/31 10:24:45;;;;;;;12.98;6.68;;;16.90;62.00;;;;;;5013865;28;20026;-71
2021/01/31 10:27:24;;;;;;;10.23;6.63;;;16.90;61.60;;;;;;5013586;28;20485;-70
2021/01/31 10:29:52;;;;;;;11.52;6.57;;;17.00;61.00;;;;;;5013749;28;20037;-70
2021/01/31 10:32:17;;;;;;;8.65;6.90;;;17.00;60.80;;;;;;5013308;28;20018;-70
2021/01/31 10:34:43;;;;;;;11.35;6.93;;;17.10;60.50;;;;;;5013538;28;20021;-70
2021/01/31 10:37:20;;;;;;;10.30;6.55;;;17.10;60.10;;;;;;5013392;28;20026;-70
2021/01/31 10:39:46;;;;;;;11.43;6.85;;;17.20;60.10;;;;;;5013541;28;20091;-70
2021/01/31 10:42:13;;;;;;;9.88;6.65;;;17.20;59.60;;;;;;5013047;28;20112;-70
2021/01/31 10:44:39;;;;;;;10.45;6.82;;;17.20;59.40;;;;;;5012820;28;20533;-70
2021/01/31 10:47:04;;;;;;;10.57;6.10;;;17.30;59.10;;;;;;5011347;28;20041;-71
2021/01/31 10:49:30;;;;;;;11.43;6.63;;;17.30;58.80;;;;;;5013135;28;20030;-71
2021/01/31 10:51:56;;;;;;;11.23;6.07;;;17.20;58.50;;;;;;5011591;28;20014;-71
2021/01/31 10:54:24;;;;;;;10.00;6.53;;;17.30;58.70;;;;;;5011878;28;20022;-70
2021/01/31 11:00:12;;;;;;;16.92;7.20;;;17.30;58.40;;;;;;5011115;28;20029;-71
2021/01/31 11:02:38;;;;;;;18.75;7.85;;;17.40;58.20;;;;;;5011412;28;20022;-70
2021/01/31 11:05:08;;;;;;;14.75;8.27;;;17.40;57.90;;;;;;5011731;28;20505;-71
2021/01/31 11:07:34;;;;;;;13.45;7.82;;;17.40;57.70;;;;;;5012956;28;20026;-70
2021/01/31 11:10:00;;;;;;;14.65;7.50;;;17.40;57.50;;;;;;5013010;28;20386;-71
2021/01/31 11:12:26;;;;;;;13.57;7.05;;;17.40;57.20;;;;;;5011298;28;20160;-70
2021/01/31 11:14:52;;;;;;;13.57;7.63;;;17.50;57.30;;;;;;5012716;28;20025;-71
2021/01/31 11:17:17;;;;;;;20.63;8.13;;;17.40;56.90;;;;;;5012548;28;20422;-70
2021/01/31 11:19:43;;;;;;;15.13;7.60;;;17.40;56.80;;;;;;5007565;28;20246;-71
2021/01/31 11:22:08;;;;;;;14.18;6.40;;;17.40;56.80;;;;;;5008939;28;20030;-71
2021/01/31 11:24:34;;;;;;;12.40;7.07;;;17.40;56.80;;;;;;5012695;28;20038;-71
2021/01/31 11:27:00;;;;;;;16.60;6.60;;;17.40;56.50;;;;;;5007322;28;20030;-71
2021/01/31 11:29:25;;;;;;;11.57;6.32;;;17.30;56.50;;;;;;5011563;28;20022;-71
2021/01/31 11:31:51;;;;;;;11.73;7.13;;;17.30;56.60;;;;;;5012351;28;20068;-70
2021/01/31 11:34:16;;;;;;;12.50;7.57;;;17.30;56.50;;;;;;5012493;28;20038;-71
2021/01/31 11:36:42;;;;;;;9.35;6.50;;;17.40;56.90;;;;;;5011027;28;20028;-71
2021/01/31 11:39:08;;;;;;;12.85;6.75;;;17.40;56.50;;;;;;5011188;28;20025;-71
2021/01/31 11:41:36;;;;;;;12.73;7.07;;;17.40;56.10;;;;;;5011187;28;20022;-71
2021/01/31 11:44:03;;;;;;;10.65;6.70;;;17.30;55.90;;;;;;5012362;28;20026;-72
2021/01/31 11:46:29;;;;;;;10.35;6.78;;;17.20;55.60;;;;;;5011153;28;20032;-71
2021/01/31 11:48:54;;;;;;;11.85;6.22;;;17.20;55.60;;;;;;5012389;28;20038;-70
2021/01/31 11:51:20;;;;;;;10.98;6.63;;;17.20;55.60;;;;;;5011164;28;20057;-70
2021/01/31 11:53:46;;;;;;;15.05;6.25;;;17.20;55.40;;;;;;5012076;28;20083;-70
2021/01/31 11:56:11;;;;;;;12.70;6.57;;;17.20;56.00;;;;;;5012289;28;20033;-71
2021/01/31 11:58:37;;;;;;;14.32;5.78;;;17.30;56.10;;;;;;5010965;28;20030;-70
2021/01/31 12:01:02;;;;;;;14.05;6.75;;;17.30;56.10;;;;;;5011033;28;20045;-71
2021/01/31 12:03:28;;;;;;;11.13;6.43;;;17.30;56.30;;;;;;5008632;28;20117;-71
2021/01/31 12:05:53;;;;;;;11.93;6.80;;;17.30;56.00;;;;;;5005772;28;20019;-71
2021/01/31 12:08:19;;;;;;;12.35;5.55;;;17.20;55.70;;;;;;4992255;28;20104;-71
2021/01/31 12:10:44;;;;;;;11.52;5.85;;;17.20;55.80;;;;;;5003755;28;20170;-71
2021/01/31 12:13:10;;;;;;;11.55;6.75;;;17.10;56.40;;;;;;5012071;28;20394;-70
2021/01/31 12:15:36;;;;;;;10.68;6.63;;;17.10;56.50;;;;;;5011138;28;20450;-71
2021/01/31 12:18:01;;;;;;;10.18;6.57;;;17.10;56.10;;;;;;5011297;28;20030;-70
2021/01/31 12:20:27;;;;;;;10.50;6.93;;;17.00;56.10;;;;;;5012224;28;20486;-71
2021/01/31 12:22:52;;;;;;;10.30;6.20;;;17.00;56.10;;;;;;5009816;28;20479;-71
2021/01/31 12:25:19;;;;;;;11.48;6.15;;;16.90;55.90;;;;;;5011026;28;20443;-71
2021/01/31 12:27:49;;;;;;;9.95;6.13;;;16.90;55.80;;;;;;5010295;28;20601;-71
2021/01/31 12:30:21;;;;;;;13.35;5.38;;;16.80;55.80;;;;;;5009115;28;20065;-71
2021/01/31 12:32:46;;;;;;;;;;;16.80;56.10;;;;;;5008460;28;20467;-71
2021/01/31 12:35:12;;;;;;;19.55;11.40;;;16.90;57.00;;;;;;5010285;28;19996;-71
2021/01/31 12:37:38;;;;;;;18.80;6.72;;;16.90;56.70;;;;;;5011450;28;20099;-71
2021/01/31 12:40:05;;;;;;;9.63;5.85;;;16.80;56.50;;;;;;5010479;28;20069;-70
2021/01/31 12:42:31;;;;;;;10.15;6.68;;;16.80;56.40;;;;;;5010632;28;20459;-71
2021/01/31 12:44:57;;;;;;;8.82;6.55;;;16.70;56.10;;;;;;5011011;28;20068;-71
2021/01/31 12:47:22;;;;;;;10.25;6.40;;;16.70;56.10;;;;;;5011197;28;20034;-71
2021/01/31 12:49:48;;;;;;;9.27;6.18;;;16.60;55.70;;;;;;5011462;28;20026;-71
2021/01/31 12:52:13;;;;;;;11.32;6.30;;;16.50;56.00;;;;;;5009792;28;20479;-71
2021/01/31 12:54:39;;;;;;;8.43;5.78;;;16.50;55.30;;;;;;5009958;28;20108;-71
2021/01/31 12:57:05;;;;;;;8.80;5.95;;;16.40;54.80;;;;;;5011373;28;20026;-71
2021/01/31 12:59:31;;;;;;;8.27;5.63;;;16.30;54.60;;;;;;5011294;28;20093;-71
2021/01/31 13:01:58;;;;;;;9.15;5.68;;;16.20;54.40;;;;;;5011080;28;20030;-71
2021/01/31 13:04:23;;;;;;;9.15;5.60;;;16.20;54.20;;;;;;5011104;28;20022;-71
2021/01/31 13:06:49;;;;;;;10.02;5.75;;;16.20;54.30;;;;;;5009811;28;20032;-70
2021/01/31 13:09:14;;;;;;;8.95;5.90;;;16.20;54.10;;;;;;5009825;28;20021;-71
2021/01/31 13:11:40;;;;;;;7.78;5.50;;;16.20;54.10;;;;;;5009806;28;20057;-71
2021/01/31 13:14:06;;;;;;;8.82;5.30;;;16.10;53.90;;;;;;5010675;28;20033;-71
2021/01/31 13:16:31;;;;;;;8.10;5.65;;;16.10;53.90;;;;;;5010965;28;20100;-71
2021/01/31 13:18:57;;;;;;;8.18;5.45;;;16.10;54.10;;;;;;5009562;28;20038;-71
2021/01/31 13:21:23;;;;;;;8.57;5.40;;;16.10;54.00;;;;;;5009525;28;20026;-71
2021/01/31 13:23:48;;;;;;;8.52;5.97;;;16.00;53.70;;;;;;5007062;28;20495;-71
2021/01/31 13:26:14;;;;;;;8.25;5.85;;;16.00;54.30;;;;;;5009805;28;20026;-70
2021/01/31 13:28:40;;;;;;;9.23;6.15;;;15.90;53.40;;;;;;5007871;28;20037;-70
2021/01/31 13:31:05;;;;;;;8.50;5.93;;;15.90;53.50;;;;;;5007990;28;20111;-71
2021/01/31 13:33:31;;;;;;;8.73;5.70;;;15.90;53.60;;;;;;5006852;28;20018;-70
2021/01/31 13:35:56;;;;;;;8.93;5.50;;;15.90;53.60;;;;;;5008575;28;20038;-70
2021/01/31 13:38:22;;;;;;;8.15;5.32;;;15.90;53.70;;;;;;5005956;28;20017;-70